Time;durP1;ratioP1;P1;durP2;ratioP2;P2;SDS_P1;SDS_P2;PMS_P1;PMS_P2;Temp;Humidity;BMP_temperature;BMP_pressure;BME280_temperature;BME280_humidity;BME280_pressure;Samples;Min_cycle;Max_cycle;Signal;HPM_P1;HPM_P2
2023/03/23 00:01:21;;;;;;;1.77;1.67;;;;;;;;;;5069182;28;20289;-83
2023/03/23 00:03:52;;;;;;;1.40;1.30;;;;;;;;;;5078091;28;20196;-78
2023/03/23 00:06:19;;;;;;;1.57;1.47;;;;;;;;;;5071690;28;20649;-83
2023/03/23 00:08:47;;;;;;;1.60;1.50;;;;;;;;;;5089882;28;20261;-81
2023/03/23 00:11:18;;;;;;;1.50;1.40;;;;;;;;;;5068514;28;20196;-83
2023/03/23 00:13:45;;;;;;;4.20;2.90;;;;;;;;;;5070862;28;20669;-81
2023/03/23 00:16:28;;;;;;;1.60;1.50;;;;;;;;;;5082256;28;20216;-81
2023/03/23 00:18:55;;;;;;;1.60;1.50;;;;;;;;;;5070313;28;21147;-81
2023/03/23 00:21:33;;;;;;;2.03;1.50;;;;;;;;;;5070673;28;20242;-82
2023/03/23 00:24:05;;;;;;;1.57;1.47;;;;;;;;;;5083355;28;20284;-83
2023/03/23 00:26:33;;;;;;;2.20;1.73;;;;;;;;;;5105616;28;20269;-80
2023/03/23 00:29:00;;;;;;;1.77;1.67;;;;;;;;;;5056137;28;21276;-80
2023/03/23 00:31:31;;;;;;;1.80;1.70;;;;;;;;;;5063702;28;20250;-83
2023/03/23 00:33:58;;;;;;;1.47;1.37;;;;;;;;;;5074980;28;20204;-84
2023/03/23 00:36:26;;;;;;;1.60;1.50;;;;;;;;;;5066100;28;20708;-77
2023/03/23 00:38:52;;;;;;;1.97;1.50;;;;;;;;;;5069911;28;21400;-82
2023/03/23 00:41:19;;;;;;;1.60;1.50;;;;;;;;;;5082614;28;20208;-83
2023/03/23 00:43:45;;;;;;;1.47;1.37;;;;;;;;;;5085062;28;20216;-81
2023/03/23 00:46:11;;;;;;;1.60;1.50;;;;;;;;;;5104009;28;20341;-82
2023/03/23 00:48:44;;;;;;;1.47;1.37;;;;;;;;;;5093307;28;20598;-79
2023/03/23 00:51:11;;;;;;;2.63;1.60;;;;;;;;;;5079610;28;20439;-83
2023/03/23 00:53:37;;;;;;;2.53;1.70;;;;;;;;;;5078861;28;20232;-82
2023/03/23 00:56:03;;;;;;;1.67;1.57;;;;;;;;;;5069427;28;20218;-84
2023/03/23 00:58:30;;;;;;;1.50;1.40;;;;;;;;;;5086095;28;20235;-82
2023/03/23 01:00:56;;;;;;;1.70;1.50;;;;;;;;;;5110393;28;20638;-82
2023/03/23 01:03:25;;;;;;;1.40;1.30;;;;;;;;;;5093749;28;20601;-83
2023/03/23 01:05:52;;;;;;;2.50;1.57;;;;;;;;;;5087342;28;20220;-84
2023/03/23 01:08:19;;;;;;;1.50;1.40;;;;;;;;;;5066339;28;20247;-83
2023/03/23 01:10:46;;;;;;;1.67;1.57;;;;;;;;;;5101419;28;20567;-84
2023/03/23 01:13:12;;;;;;;1.50;1.40;;;;;;;;;;5083095;28;20204;-84
2023/03/23 01:15:38;;;;;;;1.67;1.50;;;;;;;;;;5083068;28;22198;-85
2023/03/23 01:18:04;;;;;;;1.77;1.50;;;;;;;;;;5100586;28;20239;-79
2023/03/23 01:20:31;;;;;;;1.47;1.30;;;;;;;;;;5063066;28;20907;-82
2023/03/23 01:23:00;;;;;;;1.60;1.50;;;;;;;;;;5097867;28;20187;-82
2023/03/23 01:25:30;;;;;;;1.60;1.50;;;;;;;;;;5102015;28;20200;-82
2023/03/23 01:27:57;;;;;;;1.43;1.33;;;;;;;;;;5096519;28;20208;-83
2023/03/23 01:30:23;;;;;;;1.47;1.37;;;;;;;;;;5092590;28;20690;-81
2023/03/23 01:32:50;;;;;;;1.53;1.40;;;;;;;;;;5084329;28;20205;-81
2023/03/23 01:35:17;;;;;;;1.67;1.53;;;;;;;;;;5084575;28;20210;-81
2023/03/23 01:37:43;;;;;;;5.77;1.90;;;;;;;;;;5051262;28;20678;-81
2023/03/23 01:40:10;;;;;;;3.03;1.60;;;;;;;;;;5089850;28;20231;-83
2023/03/23 01:42:37;;;;;;;2.00;1.50;;;;;;;;;;5047036;28;20292;-79
2023/03/23 01:45:25;;;;;;;1.73;1.40;;;;;;;;;;5051670;28;20660;-79
2023/03/23 01:47:58;;;;;;;1.93;1.60;;;;;;;;;;5076228;28;20217;-81
2023/03/23 01:50:26;;;;;;;1.60;1.50;;;;;;;;;;5093968;22;20251;-64
2023/03/23 01:52:53;;;;;;;1.93;1.50;;;;;;;;;;5077669;28;20197;-66
2023/03/23 01:55:20;;;;;;;1.63;1.47;;;;;;;;;;5070724;28;20574;-65
2023/03/23 01:57:47;;;;;;;1.63;1.43;;;;;;;;;;5046273;28;20189;-64
2023/03/23 02:00:16;;;;;;;1.90;1.50;;;;;;;;;;5042559;28;20260;-65
2023/03/23 02:02:44;;;;;;;1.53;1.23;;;;;;;;;;5063129;28;20204;-65
2023/03/23 02:05:17;;;;;;;1.50;1.40;;;;;;;;;;5061214;28;20224;-64
2023/03/23 02:07:43;;;;;;;2.20;1.40;;;;;;;;;;5063253;28;20705;-64
2023/03/23 02:10:10;;;;;;;1.63;1.53;;;;;;;;;;5048567;28;20212;-64
2023/03/23 02:12:36;;;;;;;2.87;1.43;;;;;;;;;;5047408;28;20203;-64
2023/03/23 02:15:04;;;;;;;2.80;1.63;;;;;;;;;;5050152;28;20621;-65
2023/03/23 02:17:37;;;;;;;1.70;1.60;;;;;;;;;;5069537;28;20204;-64
2023/03/23 02:20:18;;;;;;;1.50;1.40;;;;;;;;;;5054037;28;20231;-64
2023/03/23 02:22:47;;;;;;;3.70;1.60;;;;;;;;;;5046618;28;20704;-64
2023/03/23 02:25:14;;;;;;;1.97;1.50;;;;;;;;;;5049148;28;20220;-64
2023/03/23 02:27:59;;;;;;;2.07;1.53;;;;;;;;;;5046105;28;20196;-64
2023/03/23 02:30:44;;;;;;;2.00;1.50;;;;;;;;;;5061588;28;20195;-65
2023/03/23 02:33:43;;;;;;;1.60;1.50;;;;;;;;;;5051964;28;20216;-64
2023/03/23 02:36:14;;;;;;;1.50;1.37;;;;;;;;;;5011529;28;20221;-63
2023/03/23 02:38:50;;;;;;;1.90;1.70;;;;;;;;;;5053079;28;20221;-64
2023/03/23 02:41:18;;;;;;;2.80;1.50;;;;;;;;;;5065010;28;20212;-65
2023/03/23 02:43:46;;;;;;;1.57;1.47;;;;;;;;;;5051760;28;20657;-65
2023/03/23 02:46:13;;;;;;;1.53;1.43;;;;;;;;;;5069005;28;20690;-65
2023/03/23 02:48:41;;;;;;;1.70;1.50;;;;;;;;;;5054031;28;20197;-65
2023/03/23 02:51:08;;;;;;;1.83;1.60;;;;;;;;;;5053527;28;20266;-65
2023/03/23 02:53:37;;;;;;;3.03;1.80;;;;;;;;;;5055410;28;20233;-65
2023/03/23 02:56:04;;;;;;;2.10;1.90;;;;;;;;;;5050878;28;20228;-65
2023/03/23 02:58:31;;;;;;;3.23;2.57;;;;;;;;;;5059209;28;20220;-66
2023/03/23 03:00:58;;;;;;;2.13;2.00;;;;;;;;;;5066317;28;20194;-65
2023/03/23 03:03:27;;;;;;;4.40;2.80;;;;;;;;;;5048289;28;20241;-65
2023/03/23 03:05:54;;;;;;;4.87;2.30;;;;;;;;;;5064129;28;20214;-65
2023/03/23 03:08:23;;;;;;;3.10;2.37;;;;;;;;;;5052178;28;20209;-65
2023/03/23 03:10:50;;;;;;;2.77;2.57;;;;;;;;;;5037394;28;20250;-65
2023/03/23 03:13:48;;;;;;;2.90;1.70;;;;;;;;;;5063373;28;20205;-65
2023/03/23 03:16:35;;;;;;;2.30;1.60;;;;;;;;;;5035140;28;20699;-65
2023/03/23 03:19:13;;;;;;;3.10;1.83;;;;;;;;;;5041513;28;20220;-64
2023/03/23 03:21:42;;;;;;;3.00;1.70;;;;;;;;;;5050961;28;20687;-64
2023/03/23 03:24:10;;;;;;;1.70;1.60;;;;;;;;;;5055635;28;20208;-65
2023/03/23 03:26:38;;;;;;;2.57;1.60;;;;;;;;;;5044305;28;20315;-65
2023/03/23 03:29:05;;;;;;;2.67;1.83;;;;;;;;;;5044144;28;20249;-65
2023/03/23 03:31:34;;;;;;;2.70;1.77;;;;;;;;;;5065324;28;20211;-65
2023/03/23 03:34:03;;;;;;;1.93;1.70;;;;;;;;;;5038280;28;20285;-65
2023/03/23 03:36:34;;;;;;;2.57;1.67;;;;;;;;;;5045639;28;20220;-65
2023/03/23 03:39:07;;;;;;;2.67;1.93;;;;;;;;;;5059183;28;20896;-65
2023/03/23 03:41:35;;;;;;;2.33;2.00;;;;;;;;;;5039890;28;20549;-64
2023/03/23 03:44:01;;;;;;;2.13;1.70;;;;;;;;;;5043965;28;20262;-63
2023/03/23 03:46:29;;;;;;;2.53;1.80;;;;;;;;;;5066009;28;20221;-63
2023/03/23 03:48:58;;;;;;;2.10;1.60;;;;;;;;;;5049954;28;20653;-64
2023/03/23 03:51:25;;;;;;;1.83;1.60;;;;;;;;;;5049174;28;20208;-63
2023/03/23 03:53:52;;;;;;;2.83;1.80;;;;;;;;;;5046890;28;20211;-63
2023/03/23 03:56:19;;;;;;;1.70;1.60;;;;;;;;;;5069387;28;20208;-65
2023/03/23 03:58:48;;;;;;;1.90;1.70;;;;;;;;;;5048504;28;20221;-65
2023/03/23 04:01:15;;;;;;;2.80;2.10;;;;;;;;;;5052609;28;20220;-65
2023/03/23 04:03:42;;;;;;;2.03;1.83;;;;;;;;;;5072640;28;20193;-65
2023/03/23 04:06:09;;;;;;;1.90;1.77;;;;;;;;;;5049639;28;20209;-65
2023/03/23 04:08:37;;;;;;;1.83;1.67;;;;;;;;;;5048818;28;21490;-66
2023/03/23 04:11:04;;;;;;;1.70;1.60;;;;;;;;;;5044404;28;20197;-65
2023/03/23 04:13:30;;;;;;;2.23;2.00;;;;;;;;;;5045301;28;20236;-65
2023/03/23 04:15:57;;;;;;;2.80;1.90;;;;;;;;;;5041917;28;20576;-64
2023/03/23 04:18:23;;;;;;;2.07;1.83;;;;;;;;;;5079378;28;20226;-64
2023/03/23 04:20:50;;;;;;;2.90;1.80;;;;;;;;;;5022478;28;20200;-64
2023/03/23 04:23:22;;;;;;;4.67;2.10;;;;;;;;;;5041805;28;20354;-65
2023/03/23 04:25:49;;;;;;;2.30;2.10;;;;;;;;;;5035716;28;20212;-65
2023/03/23 04:28:23;;;;;;;3.30;2.30;;;;;;;;;;5042972;28;20197;-64
2023/03/23 04:30:52;;;;;;;3.83;2.63;;;;;;;;;;5034582;28;20205;-64
2023/03/23 04:33:19;;;;;;;4.30;2.67;;;;;;;;;;5059191;28;20565;-64
2023/03/23 04:35:49;;;;;;;3.63;2.70;;;;;;;;;;5035566;28;20224;-64
2023/03/23 04:38:20;;;;;;;5.07;2.73;;;;;;;;;;5026043;28;21113;-64
2023/03/23 04:40:46;;;;;;;4.67;2.53;;;;;;;;;;5033723;28;20770;-64
2023/03/23 04:43:14;;;;;;;3.33;2.50;;;;;;;;;;5050626;28;20224;-64
2023/03/23 04:45:45;;;;;;;4.33;2.97;;;;;;;;;;5053822;28;20312;-65
2023/03/23 04:48:12;;;;;;;4.97;3.10;;;;;;;;;;5052775;28;20208;-65
2023/03/23 04:50:38;;;;;;;4.00;2.97;;;;;;;;;;5048100;28;20721;-65
2023/03/23 04:53:05;;;;;;;6.77;4.17;;;;;;;;;;5053392;28;20284;-65
2023/03/23 04:55:32;;;;;;;5.20;4.40;;;;;;;;;;5048052;28;20213;-64
2023/03/23 04:58:01;;;;;;;4.10;3.33;;;;;;;;;;5055268;28;20189;-64
2023/03/23 05:00:27;;;;;;;4.20;3.13;;;;;;;;;;5071379;28;20192;-64
2023/03/23 05:02:55;;;;;;;6.40;3.40;;;;;;;;;;5051958;28;20659;-65
2023/03/23 05:05:22;;;;;;;5.90;3.60;;;;;;;;;;5071673;28;20213;-65
2023/03/23 05:07:48;;;;;;;6.13;3.30;;;;;;;;;;5050657;28;20196;-65
2023/03/23 05:10:16;;;;;;;4.33;3.40;;;;;;;;;;5053315;28;20785;-65
2023/03/23 05:12:42;;;;;;;5.10;3.00;;;;;;;;;;5043515;28;20633;-64
2023/03/23 05:15:09;;;;;;;4.10;2.77;;;;;;;;;;5063854;28;20216;-65
2023/03/23 05:17:36;;;;;;;5.33;3.30;;;;;;;;;;5042243;28;22109;-64
2023/03/23 05:20:04;;;;;;;3.63;2.90;;;;;;;;;;5061404;28;20278;-64
2023/03/23 05:22:34;;;;;;;4.47;3.33;;;;;;;;;;5046393;28;20199;-64
2023/03/23 05:25:04;;;;;;;4.47;3.13;;;;;;;;;;5061690;28;20213;-64
2023/03/23 05:27:32;;;;;;;6.53;3.20;;;;;;;;;;5045863;28;20561;-65
2023/03/23 05:30:01;;;;;;;3.90;3.30;;;;;;;;;;5035175;28;20193;-64
2023/03/23 05:32:28;;;;;;;4.07;3.17;;;;;;;;;;5027988;28;22275;-64
2023/03/23 05:34:56;;;;;;;4.47;3.30;;;;;;;;;;5049833;28;20251;-64
2023/03/23 05:37:24;;;;;;;3.70;3.40;;;;;;;;;;5041640;28;20197;-64
2023/03/23 05:39:55;;;;;;;4.63;3.50;;;;;;;;;;5032768;28;20243;-64
2023/03/23 05:42:22;;;;;;;4.77;3.40;;;;;;;;;;5051435;28;20634;-64
2023/03/23 05:44:48;;;;;;;6.17;3.47;;;;;;;;;;5046882;28;20354;-64
2023/03/23 05:47:15;;;;;;;7.50;3.90;;;;;;;;;;5048058;28;20639;-64
2023/03/23 05:49:42;;;;;;;5.50;3.70;;;;;;;;;;5046874;28;20550;-65
2023/03/23 05:52:08;;;;;;;7.33;4.10;;;;;;;;;;5041630;28;20201;-64
2023/03/23 05:54:35;;;;;;;3.70;3.30;;;;;;;;;;5038694;28;20327;-64
2023/03/23 05:57:02;;;;;;;5.93;3.50;;;;;;;;;;5033291;28;20208;-64
2023/03/23 05:59:28;;;;;;;5.13;3.37;;;;;;;;;;5056176;28;20690;-64
2023/03/23 06:01:55;;;;;;;5.27;3.47;;;;;;;;;;5042774;28;20196;-64
2023/03/23 06:04:24;;;;;;;5.83;3.27;;;;;;;;;;5023271;28;20209;-64
2023/03/23 06:06:51;;;;;;;3.60;3.23;;;;;;;;;;5029548;28;20198;-63
2023/03/23 06:09:18;;;;;;;3.93;3.27;;;;;;;;;;5022257;28;21977;-63
2023/03/23 06:11:44;;;;;;;4.83;3.17;;;;;;;;;;5035293;28;20215;-63
2023/03/23 06:14:12;;;;;;;4.20;2.97;;;;;;;;;;5040680;28;20363;-63
2023/03/23 06:16:38;;;;;;;5.30;3.13;;;;;;;;;;5020740;28;20217;-63
2023/03/23 06:19:04;;;;;;;3.20;2.90;;;;;;;;;;5039362;28;20459;-65
2023/03/23 06:21:31;;;;;;;3.63;3.00;;;;;;;;;;5038530;28;20201;-64
2023/03/23 06:23:59;;;;;;;5.23;3.13;;;;;;;;;;5031922;28;20280;-63
2023/03/23 06:26:31;;;;;;;4.40;3.40;;;;;;;;;;5029471;28;20233;-65
2023/03/23 06:28:57;;;;;;;4.53;3.20;;;;;;;;;;5041787;28;20205;-63
2023/03/23 06:31:24;;;;;;;4.27;3.30;;;;;;;;;;5039655;28;20205;-65
2023/03/23 06:33:51;;;;;;;3.47;3.00;;;;;;;;;;5055678;28;20700;-63
2023/03/23 06:36:17;;;;;;;3.83;3.07;;;;;;;;;;5033123;28;20212;-65
2023/03/23 06:38:44;;;;;;;3.47;3.00;;;;;;;;;;5047002;28;20225;-63
2023/03/23 06:41:11;;;;;;;3.57;3.07;;;;;;;;;;5029787;28;20189;-62
2023/03/23 06:43:39;;;;;;;3.40;3.10;;;;;;;;;;5029388;28;20750;-64
2023/03/23 06:46:06;;;;;;;4.07;3.20;;;;;;;;;;5034202;28;20225;-64
2023/03/23 06:48:32;;;;;;;3.63;2.83;;;;;;;;;;5026144;28;20189;-64
2023/03/23 06:50:59;;;;;;;4.37;3.53;;;;;;;;;;5064904;28;20258;-65
2023/03/23 06:53:25;;;;;;;3.47;2.90;;;;;;;;;;5029555;28;20205;-64
2023/03/23 06:55:51;;;;;;;4.63;3.23;;;;;;;;;;5031674;28;20225;-63
2023/03/23 06:58:18;;;;;;;5.63;3.80;;;;;;;;;;5047509;28;20326;-65
2023/03/23 07:00:45;;;;;;;4.20;3.00;;;;;;;;;;5062823;28;20661;-65
2023/03/23 07:03:11;;;;;;;3.20;2.87;;;;;;;;;;5049099;28;20687;-65
2023/03/23 07:05:38;;;;;;;3.27;2.57;;;;;;;;;;5043744;28;20262;-64
2023/03/23 07:08:05;;;;;;;4.33;3.00;;;;;;;;;;5051814;28;20636;-65
2023/03/23 07:10:32;;;;;;;3.80;2.80;;;;;;;;;;5051662;28;20561;-64
2023/03/23 07:12:59;;;;;;;7.23;3.17;;;;;;;;;;5053299;28;20194;-65
2023/03/23 07:15:25;;;;;;;3.90;3.00;;;;;;;;;;5053052;28;20213;-64
2023/03/23 07:17:52;;;;;;;30.30;23.20;;;;;;;;;;5053867;28;20204;-65
2023/03/23 07:20:19;;;;;;;3.93;2.80;;;;;;;;;;5044500;28;20700;-63
2023/03/23 07:22:45;;;;;;;3.40;2.43;;;;;;;;;;5048354;28;20210;-66
2023/03/23 07:25:11;;;;;;;4.13;2.97;;;;;;;;;;5046009;28;20224;-64
2023/03/23 07:27:38;;;;;;;5.23;2.70;;;;;;;;;;5047755;28;20197;-63
2023/03/23 07:30:05;;;;;;;3.73;3.00;;;;;;;;;;5038073;28;20216;-64
2023/03/23 07:32:31;;;;;;;3.00;2.77;;;;;;;;;;5037665;28;20197;-63
2023/03/23 07:34:57;;;;;;;2.70;2.50;;;;;;;;;;5045780;28;20216;-64
2023/03/23 07:37:24;;;;;;;4.43;2.73;;;;;;;;;;5047762;28;20650;-64
2023/03/23 07:39:50;;;;;;;3.30;2.80;;;;;;;;;;5042969;28;20223;-65
2023/03/23 07:42:16;;;;;;;3.33;2.60;;;;;;;;;;5049783;28;20200;-64
2023/03/23 07:44:42;;;;;;;2.97;2.53;;;;;;;;;;5046777;28;20277;-63
2023/03/23 07:47:08;;;;;;;2.97;2.63;;;;;;;;;;5045757;28;20189;-64
2023/03/23 07:49:35;;;;;;;3.83;2.80;;;;;;;;;;5048486;28;20205;-64
2023/03/23 07:52:02;;;;;;;4.07;2.70;;;;;;;;;;5043732;28;20200;-65
2023/03/23 07:54:30;;;;;;;2.93;2.37;;;;;;;;;;5063112;28;20689;-64
2023/03/23 07:56:56;;;;;;;3.00;2.73;;;;;;;;;;5084321;28;20192;-64
2023/03/23 07:59:22;;;;;;;2.87;2.30;;;;;;;;;;5049430;28;20216;-62
2023/03/23 08:01:48;;;;;;;2.90;2.70;;;;;;;;;;5051466;28;20189;-63
2023/03/23 08:04:15;;;;;;;2.97;2.27;;;;;;;;;;5051700;28;20193;-64
2023/03/23 08:06:41;;;;;;;2.80;2.40;;;;;;;;;;5044965;28;20677;-63
2023/03/23 08:09:08;;;;;;;4.63;2.33;;;;;;;;;;5038913;28;20232;-65
2023/03/23 08:11:35;;;;;;;5.17;2.50;;;;;;;;;;5058449;28;20197;-65
2023/03/23 08:14:02;;;;;;;3.10;2.40;;;;;;;;;;5048065;28;20201;-63
2023/03/23 08:16:28;;;;;;;4.40;2.10;;;;;;;;;;5051095;28;20280;-63
2023/03/23 08:18:55;;;;;;;2.63;2.30;;;;;;;;;;5054796;28;20231;-64
2023/03/23 08:21:22;;;;;;;2.13;1.93;;;;;;;;;;5045704;28;20189;-64
2023/03/23 08:23:52;;;;;;;2.50;2.13;;;;;;;;;;5051906;28;20197;-64
2023/03/23 08:26:18;;;;;;;2.37;2.17;;;;;;;;;;5041736;28;20209;-64
2023/03/23 08:28:45;;;;;;;3.77;2.10;;;;;;;;;;5045962;28;20194;-65
2023/03/23 08:31:11;;;;;;;9.07;2.23;;;;;;;;;;5054708;28;20212;-64
2023/03/23 08:33:38;;;;;;;2.17;1.97;;;;;;;;;;5053910;28;20670;-65
2023/03/23 08:36:04;;;;;;;3.07;1.63;;;;;;;;;;5047194;28;20348;-65
2023/03/23 08:38:32;;;;;;;3.60;1.80;;;;;;;;;;5049280;28;20221;-65
2023/03/23 08:41:04;;;;;;;2.20;2.10;;;;;;;;;;5064002;28;20887;-65
2023/03/23 08:43:31;;;;;;;1.93;1.83;;;;;;;;;;5052684;28;20193;-65
2023/03/23 08:45:58;;;;;;;2.93;2.00;;;;;;;;;;5050295;28;20599;-65
2023/03/23 08:48:24;;;;;;;3.03;2.17;;;;;;;;;;5037570;28;20205;-65
2023/03/23 08:50:51;;;;;;;2.77;2.03;;;;;;;;;;5029649;28;21692;-65
2023/03/23 08:53:20;;;;;;;2.05;1.70;;;;;;;;;;5043972;28;20193;-65
2023/03/23 08:55:47;;;;;;;2.00;1.90;;;;;;;;;;5024433;28;20247;-64
2023/03/23 08:58:13;;;;;;;4.43;2.00;;;;;;;;;;5032936;28;20220;-65
2023/03/23 09:00:39;;;;;;;1.88;1.75;;;;;;;;;;5052141;28;20709;-65
2023/03/23 09:03:06;;;;;;;1.90;1.50;;;;;;;;;;5030545;28;20197;-64
2023/03/23 09:05:32;;;;;;;3.13;1.63;;;;;;;;;;5032153;28;20253;-64
2023/03/23 09:07:59;;;;;;;2.03;1.57;;;;;;;;;;5037093;28;20301;-65
2023/03/23 09:10:26;;;;;;;1.40;1.30;;;;;;;;;;5027484;28;20243;-64
2023/03/23 09:12:53;;;;;;;2.10;1.50;;;;;;;;;;5039308;28;20205;-65
2023/03/23 09:15:19;;;;;;;1.60;1.50;;;;;;;;;;5044085;28;20216;-64
2023/03/23 09:17:48;;;;;;;1.50;1.40;;;;;;;;;;5027537;28;20216;-64
2023/03/23 09:20:15;;;;;;;4.50;1.50;;;;;;;;;;5050683;28;20246;-64
2023/03/23 09:22:43;;;;;;;1.83;1.50;;;;;;;;;;5030439;28;20196;-64
2023/03/23 09:25:10;;;;;;;1.50;1.40;;;;;;;;;;5024985;28;20724;-63
2023/03/23 09:27:38;;;;;;;1.40;1.30;;;;;;;;;;5038026;28;20494;-64
2023/03/23 09:30:10;;;;;;;1.70;1.50;;;;;;;;;;5025650;28;20569;-63
2023/03/23 09:32:37;;;;;;;1.73;1.30;;;;;;;;;;5022372;28;20201;-63
2023/03/23 09:35:04;;;;;;;2.17;1.50;;;;;;;;;;5037262;28;20217;-65
2023/03/23 09:37:31;;;;;;;1.70;1.60;;;;;;;;;;5032920;28;20193;-63
2023/03/23 09:39:57;;;;;;;2.30;1.80;;;;;;;;;;5051627;28;20693;-63
2023/03/23 09:42:26;;;;;;;2.30;1.60;;;;;;;;;;5081136;28;20723;-63
2023/03/23 09:45:09;;;;;;;2.87;1.43;;;;;;;;;;5044835;28;20258;-64
2023/03/23 09:47:36;;;;;;;2.60;1.70;;;;;;;;;;5067871;28;20682;-65
2023/03/23 09:50:06;;;;;;;1.38;1.33;;;;;;;;;;5047799;28;20434;-65
2023/03/23 09:52:39;;;;;;;1.70;1.60;;;;;;;;;;5048263;28;20201;-65
2023/03/23 09:55:08;;;;;;;3.65;1.52;;;;;;;;;;5048665;28;20221;-63
2023/03/23 09:57:53;;;;;;;1.40;1.30;;;;;;;;;;5032713;28;20192;-63
2023/03/23 10:00:24;;;;;;;1.57;1.47;;;;;;;;;;5060293;28;20217;-65
2023/03/23 10:03:09;;;;;;;2.27;1.40;;;;;;;;;;5050079;28;20194;-64
2023/03/23 10:05:35;;;;;;;3.93;1.53;;;;;;;;;;5044433;28;20213;-64
2023/03/23 10:08:03;;;;;;;1.70;1.60;;;;;;;;;;5052401;28;20324;-64
2023/03/23 10:10:41;;;;;;;2.03;1.50;;;;;;;;;;5067756;28;20249;-64
2023/03/23 10:13:16;;;;;;;1.57;1.47;;;;;;;;;;5045776;28;20207;-65
2023/03/23 10:15:44;;;;;;;1.58;1.15;;;;;;;;;;5046168;28;20220;-64
2023/03/23 10:18:14;;;;;;;1.77;1.67;;;;;;;;;;5046203;28;20322;-65
2023/03/23 10:20:44;;;;;;;3.23;1.80;;;;;;;;;;5041567;28;20193;-62
2023/03/23 10:23:25;;;;;;;2.60;1.45;;;;;;;;;;5038839;28;20200;-63
2023/03/23 10:26:20;;;;;;;2.03;1.77;;;;;;;;;;5043932;28;20607;-63
2023/03/23 10:28:52;;;;;;;1.50;1.40;;;;;;;;;;4981703;28;20832;-65
2023/03/23 10:31:37;;;;;;;1.50;1.40;;;;;;;;;;5028902;28;20275;-64
2023/03/23 10:34:11;;;;;;;2.77;1.70;;;;;;;;;;5055893;28;20250;-65
2023/03/23 10:36:38;;;;;;;1.52;1.42;;;;;;;;;;5033291;28;20281;-62
2023/03/23 10:39:17;;;;;;;1.73;1.63;;;;;;;;;;5027295;28;20347;-63
2023/03/23 10:41:43;;;;;;;1.77;1.63;;;;;;;;;;5037415;28;20200;-65
2023/03/23 10:44:31;;;;;;;1.90;1.50;;;;;;;;;;5027821;28;20203;-65
2023/03/23 10:47:02;;;;;;;2.67;1.50;;;;;;;;;;5032137;28;20980;-63
2023/03/23 10:49:38;;;;;;;2.50;1.42;;;;;;;;;;5029236;28;20201;-65
2023/03/23 10:52:04;;;;;;;1.88;1.67;;;;;;;;;;5026829;28;20670;-65
2023/03/23 10:54:40;;;;;;;1.70;1.60;;;;;;;;;;5025479;28;20798;-65
2023/03/23 10:57:33;;;;;;;1.90;1.58;;;;;;;;;;5050201;28;20199;-65
2023/03/23 11:00:16;;;;;;;1.60;1.50;;;;;;;;;;5048568;28;20256;-64
2023/03/23 11:03:02;;;;;;;1.80;1.70;;;;;;;;;;5051229;28;20202;-64
2023/03/23 11:06:04;;;;;;;1.73;1.57;;;;;;;;;;5045505;28;20312;-64
2023/03/23 11:08:34;;;;;;;1.87;1.67;;;;;;;;;;4967665;28;20223;-64
2023/03/23 11:11:21;;;;;;;1.70;1.60;;;;;;;;;;5047874;28;20205;-64
2023/03/23 11:13:48;;;;;;;3.00;1.57;;;;;;;;;;5049996;28;20197;-64
2023/03/23 11:16:28;;;;;;;1.67;1.57;;;;;;;;;;5061369;28;20220;-64
2023/03/23 11:18:55;;;;;;;1.40;1.30;;;;;;;;;;5047189;28;20267;-64
2023/03/23 11:21:24;;;;;;;3.13;1.70;;;;;;;;;;5068061;28;20192;-64
2023/03/23 11:24:00;;;;;;;1.90;1.63;;;;;;;;;;5069243;28;20203;-64
2023/03/23 11:26:28;;;;;;;2.47;1.80;;;;;;;;;;5046389;28;20220;-65
2023/03/23 11:29:03;;;;;;;3.25;1.75;;;;;;;;;;5043098;28;20262;-64
2023/03/23 11:31:32;;;;;;;1.90;1.80;;;;;;;;;;5035502;28;20757;-64
2023/03/23 11:34:01;;;;;;;2.65;1.90;;;;;;;;;;5033482;28;20236;-64
2023/03/23 11:36:35;;;;;;;1.92;1.83;;;;;;;;;;5041107;28;20220;-64
2023/03/23 11:39:05;;;;;;;1.63;1.55;;;;;;;;;;5040153;28;20220;-64
2023/03/23 11:41:33;;;;;;;2.17;1.98;;;;;;;;;;5048557;28;20205;-64
2023/03/23 11:44:03;;;;;;;2.10;1.90;;;;;;;;;;5051341;28;20198;-64
2023/03/23 11:46:30;;;;;;;2.58;1.90;;;;;;;;;;5050356;28;20227;-64
2023/03/23 11:48:59;;;;;;;1.60;1.50;;;;;;;;;;5047292;28;20201;-64
2023/03/23 11:51:34;;;;;;;2.17;1.70;;;;;;;;;;5062109;28;20220;-65
2023/03/23 11:54:24;;;;;;;1.98;1.80;;;;;;;;;;5072301;28;20196;-66
2023/03/23 11:56:51;;;;;;;2.83;2.20;;;;;;;;;;5042844;28;20240;-63
2023/03/23 11:59:18;;;;;;;2.75;1.80;;;;;;;;;;5047788;28;20589;-63
2023/03/23 12:02:03;;;;;;;3.72;1.88;;;;;;;;;;5044758;28;20196;-63
2023/03/23 12:04:35;;;;;;;3.33;1.70;;;;;;;;;;5027318;28;20283;-64
2023/03/23 12:07:02;;;;;;;1.90;1.70;;;;;;;;;;5042746;28;20202;-64
2023/03/23 12:09:48;;;;;;;2.25;1.63;;;;;;;;;;5043532;28;21545;-66
2023/03/23 12:12:15;;;;;;;1.83;1.50;;;;;;;;;;5040302;28;20205;-64
2023/03/23 12:14:55;;;;;;;3.78;1.95;;;;;;;;;;5052993;28;20228;-64
2023/03/23 12:17:31;;;;;;;2.38;1.80;;;;;;;;;;5047055;28;20194;-63
2023/03/23 12:20:17;;;;;;;1.90;1.80;;;;;;;;;;5057946;28;20227;-64
2023/03/23 12:22:47;;;;;;;1.92;1.40;;;;;;;;;;5043417;28;20194;-65
2023/03/23 12:25:13;;;;;;;2.05;1.80;;;;;;;;;;5067748;28;20284;-66
2023/03/23 12:27:50;;;;;;;2.10;1.77;;;;;;;;;;5040527;28;20539;-65
2023/03/23 12:30:32;;;;;;;1.95;1.67;;;;;;;;;;5042998;28;20208;-65
2023/03/23 12:33:04;;;;;;;2.38;1.70;;;;;;;;;;5048687;28;20197;-65
2023/03/23 12:35:50;;;;;;;1.95;1.77;;;;;;;;;;5046620;28;20214;-64
2023/03/23 12:38:20;;;;;;;2.75;2.00;;;;;;;;;;5063820;28;20208;-65
2023/03/23 12:40:52;;;;;;;2.72;1.70;;;;;;;;;;5059203;28;20555;-65
2023/03/23 12:43:43;;;;;;;2.67;1.98;;;;;;;;;;5050064;28;20249;-63
2023/03/23 12:46:15;;;;;;;2.10;1.60;;;;;;;;;;5051954;28;20209;-64
2023/03/23 12:48:43;;;;;;;3.33;1.73;;;;;;;;;;5044616;28;20254;-65
2023/03/23 12:51:10;;;;;;;2.20;2.00;;;;;;;;;;5040217;28;20720;-63
2023/03/23 12:53:45;;;;;;;3.28;1.80;;;;;;;;;;5049196;28;20255;-65
2023/03/23 12:56:13;;;;;;;2.65;1.95;;;;;;;;;;5066177;28;20622;-64
2023/03/23 12:58:44;;;;;;;1.73;1.63;;;;;;;;;;5047927;28;20276;-65
2023/03/23 13:01:33;;;;;;;2.85;2.08;;;;;;;;;;5044534;28;20193;-65
2023/03/23 13:04:07;;;;;;;1.73;1.63;;;;;;;;;;5069576;28;20203;-64
2023/03/23 13:06:34;;;;;;;2.25;1.90;;;;;;;;;;5051128;28;20213;-64
2023/03/23 13:09:03;;;;;;;1.70;1.60;;;;;;;;;;5049440;28;20197;-65
2023/03/23 13:11:37;;;;;;;1.98;1.80;;;;;;;;;;5047493;28;20331;-65
2023/03/23 13:14:03;;;;;;;3.28;2.03;;;;;;;;;;5049014;28;20195;-64
2023/03/23 13:16:47;;;;;;;2.90;2.20;;;;;;;;;;5049356;28;20228;-64
2023/03/23 13:19:20;;;;;;;2.17;1.73;;;;;;;;;;5046124;28;20263;-63
2023/03/23 13:21:50;;;;;;;3.28;1.92;;;;;;;;;;5050402;28;20196;-64
2023/03/23 13:24:18;;;;;;;1.65;1.55;;;;;;;;;;5045650;28;20197;-63
2023/03/23 13:26:47;;;;;;;2.05;1.95;;;;;;;;;;5063799;28;20203;-65
2023/03/23 13:29:24;;;;;;;2.42;2.17;;;;;;;;;;5065136;28;20197;-63
2023/03/23 13:31:50;;;;;;;1.70;1.60;;;;;;;;;;5028938;28;20229;-63
2023/03/23 13:34:19;;;;;;;2.88;1.80;;;;;;;;;;5051449;28;20197;-63
2023/03/23 13:37:12;;;;;;;2.15;1.98;;;;;;;;;;5027448;28;20369;-63
2023/03/23 13:39:59;;;;;;;2.03;1.92;;;;;;;;;;5043060;28;20224;-64
2023/03/23 13:42:30;;;;;;;2.25;1.90;;;;;;;;;;5055823;28;20193;-63
2023/03/23 13:44:56;;;;;;;6.40;1.80;;;;;;;;;;5037362;28;20217;-62
2023/03/23 13:47:28;;;;;;;2.60;1.90;;;;;;;;;;5036032;28;20498;-65
2023/03/23 13:49:59;;;;;;;2.97;1.92;;;;;;;;;;5034561;28;20217;-65
2023/03/23 13:52:38;;;;;;;1.83;1.67;;;;;;;;;;5069677;28;20189;-64
2023/03/23 13:55:16;;;;;;;2.20;1.85;;;;;;;;;;5042968;28;20221;-64
2023/03/23 13:57:56;;;;;;;2.58;1.83;;;;;;;;;;5048517;28;20205;-64
2023/03/23 14:00:25;;;;;;;1.63;1.52;;;;;;;;;;5046383;28;20220;-64
2023/03/23 14:02:52;;;;;;;2.25;1.67;;;;;;;;;;5047950;28;20189;-64
2023/03/23 14:05:18;;;;;;;1.67;1.52;;;;;;;;;;5051766;28;20231;-64
2023/03/23 14:08:11;;;;;;;1.98;1.70;;;;;;;;;;5055652;28;20208;-64
2023/03/23 14:10:39;;;;;;;2.70;1.63;;;;;;;;;;5060489;28;20201;-64
2023/03/23 14:13:10;;;;;;;1.80;1.60;;;;;;;;;;5050222;28;20197;-64
2023/03/23 14:15:55;;;;;;;2.05;1.90;;;;;;;;;;5046611;28;20253;-64
2023/03/23 14:18:22;;;;;;;1.80;1.70;;;;;;;;;;5054599;28;20234;-64
2023/03/23 14:20:49;;;;;;;4.93;1.70;;;;;;;;;;5063680;28;20682;-64
2023/03/23 14:23:19;;;;;;;1.80;1.70;;;;;;;;;;5067171;28;20193;-65
2023/03/23 14:25:54;;;;;;;2.05;1.85;;;;;;;;;;5053320;28;20216;-64
2023/03/23 14:28:22;;;;;;;2.13;1.80;;;;;;;;;;5058955;28;20246;-64
2023/03/23 14:30:52;;;;;;;2.35;1.90;;;;;;;;;;5072988;28;20274;-64
2023/03/23 14:33:20;;;;;;;2.33;1.90;;;;;;;;;;5069606;28;20208;-64
2023/03/23 14:35:48;;;;;;;4.00;1.88;;;;;;;;;;5056142;28;20584;-64
2023/03/23 14:38:20;;;;;;;3.42;1.90;;;;;;;;;;5046896;28;20649;-64
2023/03/23 14:40:49;;;;;;;3.55;1.90;;;;;;;;;;5060048;28;20221;-65
2023/03/23 14:43:17;;;;;;;2.22;1.90;;;;;;;;;;5051545;28;20612;-64
2023/03/23 14:45:44;;;;;;;2.72;1.80;;;;;;;;;;5057715;28;20274;-65
2023/03/23 14:48:13;;;;;;;2.78;1.70;;;;;;;;;;5047571;28;20224;-65
2023/03/23 14:50:49;;;;;;;2.53;1.73;;;;;;;;;;5062654;28;20665;-64
2023/03/23 14:53:30;;;;;;;3.08;2.03;;;;;;;;;;5050357;28;20213;-64
2023/03/23 14:56:00;;;;;;;3.08;2.13;;;;;;;;;;5072793;28;20292;-65
2023/03/23 14:58:26;;;;;;;3.88;2.50;;;;;;;;;;5043888;28;20288;-64
2023/03/23 15:00:58;;;;;;;3.40;2.00;;;;;;;;;;5046120;28;20256;-64